createdAt,value
2018-07-04T00:03:08.443Z,61.80
2018-07-04T00:06:13.141Z,62.30
2018-07-04T00:09:40.329Z,62.50
2018-07-04T00:12:45.446Z,63.90
2018-07-04T00:15:50.495Z,64.40
2018-07-04T00:18:55.270Z,65.00
2018-07-04T00:27:35.494Z,65.80
2018-07-04T00:30:40.547Z,65.10
2018-07-04T00:33:50.720Z,65.00
2018-07-04T00:36:55.961Z,64.60
2018-07-04T00:40:11.437Z,64.60
2018-07-04T00:43:36.688Z,64.30
2018-07-04T00:46:42.646Z,64.30
2018-07-04T00:49:48.964Z,64.40
2018-07-04T00:55:40.173Z,64.50
2018-07-04T01:01:51.444Z,65.20
2018-07-04T01:04:59.879Z,65.90
2018-07-04T01:08:11.431Z,65.60
2018-07-04T01:17:14.500Z,65.80
2018-07-04T01:20:31.869Z,65.60
2018-07-04T01:26:25.056Z,64.90
2018-07-04T01:29:31.168Z,64.40
2018-07-04T01:32:36.202Z,64.80
2018-07-04T01:35:41.325Z,64.80
2018-07-04T01:38:47.516Z,64.90
2018-07-04T01:41:52.705Z,64.80
2018-07-04T01:44:57.523Z,66.10
2018-07-04T01:48:02.605Z,67.10
2018-07-04T01:51:09.511Z,66.70
2018-07-04T01:54:14.551Z,67.10
2018-07-04T01:57:23.217Z,67.00
2018-07-04T02:00:29.730Z,66.60
2018-07-04T02:03:45.327Z,65.60
2018-07-04T02:06:53.643Z,66.40
2018-07-04T02:09:58.507Z,66.50
2018-07-04T02:18:39.409Z,68.50
2018-07-04T02:21:44.434Z,67.90
2018-07-04T02:24:50.606Z,68.30
2018-07-04T02:27:56.939Z,68.50
2018-07-04T02:31:03.663Z,68.50
2018-07-04T02:34:12.098Z,68.20
2018-07-04T02:40:17.512Z,67.90
2018-07-04T02:43:23.682Z,68.20
2018-07-04T02:46:41.232Z,69.10
2018-07-04T02:49:46.431Z,69.20
2018-07-04T02:52:52.868Z,68.70
2018-07-04T02:55:57.958Z,68.40
2018-07-04T02:59:02.880Z,67.90
2018-07-04T03:02:09.517Z,68.10
2018-07-04T03:08:04.320Z,69.40
2018-07-04T03:11:09.536Z,70.40
2018-07-04T03:14:14.691Z,70.70
2018-07-04T03:17:19.440Z,70.80
2018-07-04T03:20:24.354Z,69.80
2018-07-04T03:23:29.542Z,69.60
2018-07-04T03:29:24.569Z,69.50
2018-07-04T03:35:20.890Z,70.80
2018-07-04T03:38:41.057Z,71.00
2018-07-04T03:41:46.212Z,71.10
2018-07-04T03:44:52.532Z,70.70
2018-07-04T03:47:57.591Z,71.90
2018-07-04T03:51:03.829Z,72.30
2018-07-04T03:59:43.924Z,71.80
2018-07-04T04:05:35.559Z,71.80
2018-07-04T04:14:14.887Z,73.80
2018-07-04T04:17:21.002Z,73.90
2018-07-04T04:23:12.813Z,77.20
2018-07-04T04:26:17.761Z,77.20
2018-07-04T04:29:34.797Z,77.40
2018-07-04T04:35:26.173Z,80.40
2018-07-04T04:38:34.403Z,81.40
2018-07-04T04:41:39.944Z,80.80
2018-07-04T04:44:45.255Z,81.30
2018-07-04T04:47:51.921Z,82.20
2018-07-04T04:50:57.969Z,82.40
2018-07-04T04:54:03.156Z,82.80
2018-07-04T04:59:56.030Z,86.30
2018-07-04T05:03:02.239Z,87.50
2018-07-04T05:06:07.352Z,88.80
2018-07-04T05:11:58.197Z,90.90
2018-07-04T05:15:02.788Z,91.10
2018-07-04T05:18:07.704Z,91.20
2018-07-04T05:21:12.535Z,91.80
2018-07-04T05:24:17.909Z,92.40
2018-07-04T05:30:08.710Z,94.00
2018-07-04T05:33:13.422Z,94.00
2018-07-04T05:36:18.273Z,94.60
2018-07-04T05:39:24.113Z,95.30
2018-07-04T05:42:29.315Z,95.70
2018-07-04T05:45:34.630Z,96.30
2018-07-04T05:48:40.059Z,95.80
2018-07-04T05:51:46.305Z,96.00
2018-07-04T05:54:51.442Z,96.50
2018-07-04T05:57:56.403Z,96.10
2018-07-04T06:01:01.587Z,96.40
2018-07-04T06:12:26.774Z,98.10
2018-07-04T06:18:19.208Z,97.40
2018-07-04T06:21:23.985Z,98.10
2018-07-04T06:24:28.744Z,98.30
2018-07-04T06:27:33.813Z,97.90
2018-07-04T06:30:38.575Z,97.60
2018-07-04T06:33:43.388Z,97.90
2018-07-04T06:36:48.406Z,97.50
2018-07-04T06:41:43.348Z,97.80
2018-07-04T06:44:10.717Z,97.60
2018-07-04T06:46:38.081Z,97.40
2018-07-04T06:49:05.755Z,96.70
2018-07-04T06:51:33.058Z,96.60
2018-07-04T06:56:27.946Z,96.30
2018-07-04T06:58:55.290Z,95.80
2018-07-04T07:01:22.586Z,95.70
2018-07-04T07:04:27.945Z,94.80
2018-07-04T07:07:33.303Z,94.80
2018-07-04T07:10:38.211Z,94.50
2018-07-04T07:13:43.053Z,94.40
2018-07-04T07:16:49.011Z,94.80
2018-07-04T07:19:53.642Z,94.80
2018-07-04T07:22:58.656Z,94.50
2018-07-04T07:26:04.113Z,94.20
2018-07-04T07:29:09.915Z,93.50
2018-07-04T07:32:14.858Z,93.20
2018-07-04T07:35:19.636Z,92.90
2018-07-04T07:41:12.420Z,92.40
2018-07-04T07:44:18.476Z,92.00
2018-07-04T07:47:23.281Z,91.30
2018-07-04T07:50:28.154Z,91.30
2018-07-04T07:53:32.929Z,90.20
2018-07-04T07:56:38.176Z,90.40
2018-07-04T07:59:43.636Z,90.10
2018-07-04T08:02:48.411Z,89.80
2018-07-04T08:05:53.360Z,89.70
2018-07-04T08:09:00.961Z,87.60
2018-07-04T08:12:06.536Z,88.50
2018-07-04T08:15:12.862Z,88.50
2018-07-04T08:18:17.793Z,87.20
2018-07-04T08:24:11.242Z,84.20
2018-07-04T08:27:16.017Z,82.80
2018-07-04T08:30:21.225Z,83.60
2018-07-04T08:33:27.598Z,82.90
2018-07-04T08:36:32.849Z,85.70
2018-07-04T08:42:30.902Z,82.50
2018-07-04T08:45:36.121Z,81.50
2018-07-04T08:48:40.877Z,75.40
2018-07-04T08:51:45.814Z,73.40
2018-07-04T08:54:50.534Z,73.80
2018-07-04T08:57:56.124Z,72.30
2018-07-04T09:01:01.489Z,72.70
2018-07-04T09:06:52.955Z,72.60
2018-07-04T09:12:44.451Z,72.40
2018-07-04T09:15:50.245Z,72.70
2018-07-04T09:18:55.248Z,72.60
2018-07-04T09:22:01.104Z,69.30
2018-07-04T09:25:06.230Z,71.10
2018-07-04T09:28:11.893Z,70.60
2018-07-04T09:31:17.477Z,68.60
2018-07-04T09:34:23.433Z,69.00
2018-07-04T09:40:14.681Z,61.20
2018-07-04T09:46:05.747Z,64.00
2018-07-04T09:49:10.684Z,64.90
2018-07-04T09:52:15.746Z,65.90
2018-07-04T09:55:21.190Z,65.30
2018-07-04T09:58:26.178Z,65.60
2018-07-04T10:01:30.943Z,65.50
2018-07-04T10:04:35.973Z,63.90
2018-07-04T10:07:40.924Z,63.90
2018-07-04T10:10:45.719Z,64.70
2018-07-04T10:19:24.770Z,63.30
2018-07-04T10:25:16.494Z,64.20
2018-07-04T10:28:21.147Z,62.70
2018-07-04T10:31:25.968Z,62.20
2018-07-04T10:34:41.712Z,64.70
2018-07-04T10:40:33.298Z,63.70
2018-07-04T10:43:38.323Z,64.70
2018-07-04T10:46:43.312Z,65.70
2018-07-04T10:49:48.862Z,62.60
2018-07-04T10:52:54.019Z,61.50
2018-07-04T10:56:00.810Z,61.40
2018-07-04T10:59:05.952Z,63.20
2018-07-04T11:07:44.306Z,62.70
2018-07-04T11:19:10.009Z,59.40
2018-07-04T11:22:14.812Z,60.40
2018-07-04T11:25:19.749Z,60.20
2018-07-04T11:28:24.627Z,59.50
2018-07-04T11:31:29.497Z,59.60
2018-07-04T11:34:34.379Z,58.80
2018-07-04T11:37:39.692Z,56.90
2018-07-04T11:43:31.557Z,55.20
2018-07-04T11:45:59.864Z,55.60
2018-07-04T11:48:30.247Z,52.40
2018-07-04T11:50:58.468Z,53.60
2018-07-04T11:53:28.758Z,55.60
2018-07-04T11:55:56.079Z,54.70
2018-07-04T11:58:25.239Z,54.70
2018-07-04T12:00:52.536Z,53.70
2018-07-04T12:03:21.110Z,52.40
2018-07-04T12:06:26.737Z,51.10
2018-07-04T12:13:49.702Z,52.10
2018-07-04T12:16:17.006Z,51.60
2018-07-04T12:18:44.289Z,50.20
2018-07-04T12:21:11.641Z,51.10
2018-07-04T12:23:39.724Z,51.60
2018-07-04T12:26:07.081Z,50.80
2018-07-04T12:28:34.512Z,49.50
2018-07-04T12:33:29.749Z,49.00
2018-07-04T12:38:25.273Z,39.70
2018-07-04T12:40:52.569Z,36.40
2018-07-04T12:43:19.961Z,30.80
2018-07-04T12:48:18.618Z,26.10
2018-07-04T12:50:46.365Z,23.90
2018-07-04T12:53:13.743Z,24.40
2018-07-04T12:56:18.790Z,23.00
2018-07-04T13:02:10.211Z,23.20
2018-07-04T13:05:16.014Z,21.40
2018-07-04T13:19:28.228Z,20.40
2018-07-04T13:28:08.869Z,18.20
2018-07-04T13:31:14.059Z,16.00
2018-07-04T13:37:08.085Z,16.10
2018-07-04T13:40:15.758Z,17.10
2018-07-04T13:43:22.028Z,16.90
2018-07-04T13:46:26.997Z,17.00
2018-07-04T13:49:32.751Z,17.50
2018-07-04T13:52:38.047Z,17.30
2018-07-04T13:55:44.527Z,17.50
2018-07-04T13:58:49.315Z,17.60
2018-07-04T14:01:54.319Z,17.10
2018-07-04T14:05:00.658Z,16.60
2018-07-04T14:08:05.628Z,16.50
2018-07-04T14:11:10.552Z,16.00
2018-07-04T14:14:15.538Z,16.30
2018-07-04T14:17:23.686Z,16.40
2018-07-04T14:23:15.073Z,14.60
2018-07-04T14:26:21.295Z,15.80
2018-07-04T14:29:26.054Z,16.00
2018-07-04T14:32:30.915Z,14.30
2018-07-04T14:35:35.663Z,15.20
2018-07-04T14:38:42.150Z,13.90
2018-07-04T14:44:34.566Z,14.70
2018-07-04T14:47:39.405Z,14.90
2018-07-04T14:50:45.724Z,15.30
2018-07-04T14:56:39.427Z,14.30
2018-07-04T15:02:40.756Z,15.20
2018-07-04T15:05:45.629Z,15.60
2018-07-04T15:17:10.303Z,15.20
2018-07-04T15:20:15.351Z,16.30
2018-07-04T15:23:22.092Z,15.20
2018-07-04T15:26:27.087Z,15.70
2018-07-04T15:29:32.729Z,16.60
2018-07-04T15:32:37.565Z,15.30
2018-07-04T15:35:42.464Z,16.10
2018-07-04T15:38:50.368Z,16.20
2018-07-04T15:44:41.206Z,17.20
2018-07-04T15:47:46.816Z,17.90
2018-07-04T15:50:51.968Z,19.50
2018-07-04T15:53:56.671Z,20.00
2018-07-04T15:57:01.360Z,20.40
2018-07-04T16:00:06.189Z,19.40
2018-07-04T16:03:11.517Z,20.00
2018-07-04T16:09:03.155Z,19.50
2018-07-04T16:14:55.254Z,20.10
2018-07-04T16:18:00.558Z,19.90
2018-07-04T16:23:51.564Z,19.90
2018-07-04T16:26:57.040Z,19.60
2018-07-04T16:32:48.166Z,19.60
2018-07-04T16:35:53.398Z,20.20
2018-07-04T16:38:57.994Z,20.50
2018-07-04T16:42:03.034Z,20.60
2018-07-04T16:45:07.661Z,21.30
2018-07-04T16:48:13.859Z,21.50
2018-07-04T16:51:20.266Z,21.40
2018-07-04T16:54:37.160Z,21.60
2018-07-04T17:00:28.529Z,22.30
2018-07-04T17:03:33.704Z,22.60
2018-07-04T17:06:38.535Z,23.20
2018-07-04T17:09:43.770Z,23.00
2018-07-04T17:12:48.449Z,23.40
2018-07-04T17:21:26.074Z,25.00
2018-07-04T17:24:31.056Z,25.50
2018-07-04T17:27:35.904Z,26.00
2018-07-04T17:30:40.881Z,26.60
2018-07-04T17:33:45.911Z,26.90
2018-07-04T17:36:51.975Z,27.40
2018-07-04T17:39:57.114Z,27.90
2018-07-04T17:43:02.273Z,28.40
2018-07-04T17:46:07.105Z,28.20
2018-07-04T17:57:30.645Z,29.40
2018-07-04T18:06:08.781Z,30.20
2018-07-04T18:09:13.629Z,30.40
2018-07-04T18:15:06.099Z,31.20
2018-07-04T18:23:43.430Z,32.80
2018-07-04T18:29:34.444Z,33.80
2018-07-04T18:43:45.793Z,35.60
2018-07-04T18:46:51.137Z,35.90
2018-07-04T18:49:56.021Z,37.10
2018-07-04T18:53:00.593Z,37.40
2018-07-04T18:56:05.332Z,37.40
2018-07-04T18:59:10.524Z,38.30
2018-07-04T19:02:15.298Z,39.00
2018-07-04T19:05:20.366Z,39.20
2018-07-04T19:11:11.688Z,39.80
2018-07-04T19:14:18.946Z,40.40
2018-07-04T19:17:23.980Z,40.50
2018-07-04T19:20:29.084Z,40.70
2018-07-04T19:26:21.724Z,41.80
2018-07-04T19:29:29.866Z,41.90
2018-07-04T19:35:21.663Z,42.30
2018-07-04T19:38:27.187Z,42.80
2018-07-04T19:41:32.014Z,43.20
2018-07-04T19:44:36.930Z,43.70
2018-07-04T19:47:41.901Z,44.40
2018-07-04T19:50:47.199Z,44.50
2018-07-04T19:59:27.669Z,46.10
2018-07-04T20:05:16.971Z,46.20
2018-07-04T20:08:21.914Z,46.30
2018-07-04T20:11:33.045Z,46.60
2018-07-04T20:14:37.868Z,46.80
2018-07-04T20:17:42.580Z,47.00
2018-07-04T20:23:36.811Z,48.20
2018-07-04T20:26:42.290Z,48.50
2018-07-04T20:29:47.643Z,48.70
2018-07-04T20:32:52.446Z,48.80
2018-07-04T20:35:57.420Z,49.70
2018-07-04T20:39:02.448Z,49.80
2018-07-04T20:42:07.368Z,50.50
2018-07-04T20:47:58.801Z,50.60
2018-07-04T20:51:03.394Z,51.20
2018-07-04T20:54:08.305Z,52.20
2018-07-04T20:57:13.340Z,52.30
2018-07-04T21:00:17.989Z,53.10
2018-07-04T21:03:24.165Z,53.40
2018-07-04T21:09:15.398Z,53.60
2018-07-04T21:15:06.722Z,54.60
2018-07-04T21:18:11.768Z,55.00
2018-07-04T21:24:04.274Z,55.30
2018-07-04T21:27:09.388Z,55.50
2018-07-04T21:38:32.951Z,56.10
2018-07-04T21:41:37.716Z,56.90
2018-07-04T21:44:42.612Z,57.60
2018-07-04T21:47:48.824Z,57.60
2018-07-04T21:50:53.788Z,57.30
2018-07-04T21:56:44.821Z,58.20
2018-07-04T21:59:50.945Z,58.60
2018-07-04T22:02:56.466Z,59.10
2018-07-04T22:08:49.100Z,59.40
2018-07-04T22:11:54.146Z,59.80
2018-07-04T22:17:46.328Z,59.80
2018-07-04T22:20:51.522Z,60.70
2018-07-04T22:29:29.319Z,61.30
2018-07-04T22:32:36.110Z,61.30
2018-07-04T22:35:39.118Z,61.80
2018-07-04T22:38:45.483Z,61.80
2018-07-04T22:41:50.495Z,61.80
2018-07-04T22:44:55.320Z,62.40
2018-07-04T22:48:00.063Z,63.00
2018-07-04T22:51:05.907Z,63.30
2018-07-04T22:54:11.928Z,64.10
2018-07-04T22:57:16.818Z,64.00
2018-07-04T23:00:21.570Z,64.10
2018-07-04T23:03:26.776Z,64.40
2018-07-04T23:06:31.407Z,65.20
2018-07-04T23:09:36.389Z,65.50
2018-07-04T23:12:41.436Z,66.40
2018-07-04T23:15:46.422Z,67.50
2018-07-04T23:18:51.109Z,67.70
2018-07-04T23:21:55.864Z,67.80
2018-07-04T23:27:47.268Z,68.10
2018-07-04T23:30:52.354Z,68.50
2018-07-04T23:33:57.231Z,68.80
2018-07-04T23:37:01.911Z,69.30
2018-07-04T23:40:06.776Z,69.10
2018-07-04T23:43:11.952Z,69.00
2018-07-04T23:46:16.748Z,69.00
2018-07-04T23:49:21.648Z,69.40
2018-07-04T23:55:14.150Z,69.50
2018-07-04T23:58:18.806Z,70.30
